EIKN

Ireland West Knock Airport

Charleston, Ireland
METAR EIKN 231030Z 14006KT 090V190 9999 FEW024 SCT300 15/10 Q1025 NOSIG
Observed Flight Rules
May-23 @ 10:30 UTC (33 minutes ago) Visual Flight Rules
Wind Visibility Clouds
140° at 6 knots 10,000+ meters
  • Few at 2,400' AGL
  • Scattered at 30,000' AGL
Temperatures Readings
Current 15°C / 59°F
Dewpoint 10°C / 50°F
Humidity 72%
Altimeter 30.27" Hg
Pressure 1025 hPa
Elevation 64
METAR EIKN 231030Z 14006KT 090V190 9999 FEW024 SCT300 15/10 Q1025 NOSIG
Observed Flight Rules
May-23 @ 10:30 UTC
(33 minutes ago)
VFR
Wind Visibility
140° at 6 knots 10,000+ meters
Clouds
  • Few at 2,400' AGL
  • Scattered at 30,000' AGL
Temperature Dewpoint
15°C / 59°F 10°C / 50°F
Humidity Altimeter Pressure
72% 30.27" Hg 1025 hPa